Time;durP1;ratioP1;P1;durP2;ratioP2;P2;SDS_P1;SDS_P2;PMS_P1;PMS_P2;Temp;Humidity;BMP_temperature;BMP_pressure;BME280_temperature;BME280_humidity;BME280_pressure;Samples;Min_cycle;Max_cycle;Signal;HPM_P1;HPM_P2
2021/09/24 00:00:11;;;;;;;;;;;15.50;94.40;;;;;;5002710;28;19983;-59
2021/09/24 00:02:38;;;;;;;;;;;15.50;94.60;;;;;;5001470;28;19960;-60
2021/09/24 00:05:05;;;;;;;;;;;15.50;94.70;;;;;;5001646;28;19921;-59
2021/09/24 00:07:31;;;;;;;;;;;15.40;94.70;;;;;;5002180;28;19928;-60
2021/09/24 00:09:58;;;;;;;;;;;15.40;94.80;;;;;;5002594;28;19931;-60
2021/09/24 00:12:25;;;;;;;;;;;15.40;94.70;;;;;;5002271;28;19983;-59
2021/09/24 00:14:52;;;;;;;;;;;15.40;94.80;;;;;;5007366;28;19952;-60
2021/09/24 00:17:18;;;;;;;;;;;15.40;94.80;;;;;;5008751;28;19925;-59
2021/09/24 00:19:45;;;;;;;;;;;15.40;94.90;;;;;;5007441;28;19967;-59
2021/09/24 00:22:12;;;;;;;;;;;15.40;95.10;;;;;;5005881;28;20011;-59
2021/09/24 00:24:38;;;;;;;;;;;15.30;94.90;;;;;;5004838;28;19980;-60
2021/09/24 00:27:05;;;;;;;;;;;15.30;94.90;;;;;;5006722;28;20398;-60
2021/09/24 00:29:32;;;;;;;;;;;15.30;95.00;;;;;;5008609;28;19925;-60
2021/09/24 00:31:58;;;;;;;;;;;15.30;94.90;;;;;;5007382;28;19928;-59
2021/09/24 00:34:25;;;;;;;;;;;15.20;94.80;;;;;;5008248;28;19929;-60
2021/09/24 00:36:52;;;;;;;;;;;15.30;94.90;;;;;;5008132;28;19984;-61
2021/09/24 00:39:18;;;;;;;;;;;15.20;95.00;;;;;;5004173;28;19921;-59
2021/09/24 00:41:45;;;;;;;;;;;15.20;94.90;;;;;;5006446;28;19968;-59
2021/09/24 00:44:12;;;;;;;;;;;15.20;95.00;;;;;;5006769;28;20012;-59
2021/09/24 00:46:38;;;;;;;;;;;15.10;95.00;;;;;;5008595;28;19979;-60
2021/09/24 00:49:18;;;;;;;;;;;15.10;95.10;;;;;;5007560;28;19921;-59
2021/09/24 00:51:44;;;;;;;;;;;15.10;94.90;;;;;;5008465;28;19968;-59
2021/09/24 00:54:11;;;;;;;;;;;15.10;95.00;;;;;;5006350;28;19926;-60
2021/09/24 00:56:38;;;;;;;;;;;15.10;95.10;;;;;;5007249;28;20013;-60
2021/09/24 00:59:04;;;;;;;;;;;15.00;95.00;;;;;;5008183;28;20052;-60
2021/09/24 01:01:31;;;;;;;;;;;15.00;95.20;;;;;;5006537;28;20583;-60
2021/09/24 01:03:58;;;;;;;;;;;15.00;95.20;;;;;;5004786;28;19977;-60
2021/09/24 01:06:25;;;;;;;;;;;15.00;95.20;;;;;;5004514;28;20143;-61
2021/09/24 01:08:52;;;;;;;;;;;14.90;95.20;;;;;;5003841;28;19932;-60
2021/09/24 01:11:19;;;;;;;;;;;14.90;95.10;;;;;;5003521;28;19972;-59
2021/09/24 01:13:45;;;;;;;;;;;14.90;95.30;;;;;;5003089;28;19929;-60
2021/09/24 01:16:12;;;;;;;;;;;14.90;95.10;;;;;;5004959;28;19975;-60
2021/09/24 01:18:39;;;;;;;;;;;14.80;95.20;;;;;;5003984;28;19925;-60
2021/09/24 01:21:09;;;;;;;;;;;14.80;95.20;;;;;;5007034;28;20349;-59
2021/09/24 01:23:36;;;;;;;;;;;14.80;95.20;;;;;;5006271;28;20369;-60
2021/09/24 01:26:03;;;;;;;;;;;14.80;95.20;;;;;;5006986;28;20354;-60
2021/09/24 01:28:29;;;;;;;;;;;14.80;95.30;;;;;;5006088;28;19921;-60
2021/09/24 01:30:56;;;;;;;;;;;14.70;95.00;;;;;;5007583;28;20545;-60
2021/09/24 01:33:23;;;;;;;;;;;14.70;95.10;;;;;;5008575;28;20005;-60
2021/09/24 01:35:50;;;;;;;;;;;14.70;95.10;;;;;;5009971;28;19965;-59
2021/09/24 01:38:16;;;;;;;;;;;14.70;94.80;;;;;;5009338;28;20515;-60
2021/09/24 01:40:43;;;;;;;;;;;14.70;94.50;;;;;;5009212;28;20010;-60
2021/09/24 01:43:10;;;;;;;;;;;14.70;94.90;;;;;;5006740;28;20396;-59
2021/09/24 01:45:36;;;;;;;;;;;14.70;94.70;;;;;;5008952;28;20001;-59
2021/09/24 01:48:03;;;;;;;;;;;14.70;95.00;;;;;;5005724;28;19929;-59
2021/09/24 01:50:30;;;;;;;;;;;14.70;94.70;;;;;;5008336;28;20311;-60
2021/09/24 01:52:57;;;;;;;;;;;14.70;95.10;;;;;;5007539;28;20355;-60
2021/09/24 01:55:23;;;;;;;;;;;14.80;94.90;;;;;;5007959;28;20088;-59
2021/09/24 01:57:50;;;;;;;;;;;14.80;94.80;;;;;;5006266;28;19960;-60
2021/09/24 02:00:17;;;;;;;;;;;14.80;94.50;;;;;;5008038;28;20226;-60
2021/09/24 02:02:43;;;;;;;;;;;14.80;94.20;;;;;;5007165;28;19976;-60
2021/09/24 02:05:10;;;;;;;;;;;14.80;94.10;;;;;;5007799;28;20367;-60
2021/09/24 02:07:37;;;;;;;;;;;14.80;94.00;;;;;;5007831;28;19999;-60
2021/09/24 02:10:04;;;;;;;;;;;14.80;94.30;;;;;;5006762;28;19927;-60
2021/09/24 02:12:31;;;;;;;;;;;14.80;94.20;;;;;;5000871;28;20364;-60
2021/09/24 02:14:58;;;;;;;;;;;14.80;94.70;;;;;;5007654;28;19925;-60
2021/09/24 02:17:24;;;;;;;;;;;14.80;94.80;;;;;;5007545;28;20043;-59
2021/09/24 02:19:51;;;;;;;;;;;14.80;94.80;;;;;;5006690;28;19975;-60
2021/09/24 02:22:18;;;;;;;;;;;14.80;95.10;;;;;;5007200;28;20028;-60
2021/09/24 02:24:44;;;;;;;;;;;14.80;94.80;;;;;;5007090;28;19941;-60
2021/09/24 02:27:11;;;;;;;;;;;14.80;94.30;;;;;;5006956;28;20064;-60
2021/09/24 02:29:38;;;;;;;;;;;14.80;94.50;;;;;;5006208;28;19921;-60
2021/09/24 02:32:05;;;;;;;;;;;14.80;94.60;;;;;;5006854;28;20611;-60
2021/09/24 02:34:31;;;;;;;;;;;14.80;94.40;;;;;;5007017;28;19929;-60
2021/09/24 02:36:58;;;;;;;;;;;14.80;94.50;;;;;;5005194;28;19976;-59
2021/09/24 02:39:25;;;;;;;;;;;14.80;94.60;;;;;;5007038;28;20514;-60
2021/09/24 02:41:51;;;;;;;;;;;14.90;94.70;;;;;;5003978;28;19921;-60
2021/09/24 02:44:18;;;;;;;;;;;14.90;94.70;;;;;;5007285;28;20437;-59
2021/09/24 02:46:45;;;;;;;;;;;14.90;94.70;;;;;;5007436;28;20490;-60
2021/09/24 02:49:11;;;;;;;;;;;14.90;94.80;;;;;;5005930;28;20426;-60
2021/09/24 02:51:38;;;;;;;;;;;14.90;94.80;;;;;;5005037;28;20036;-59
2021/09/24 02:54:05;;;;;;;;;;;14.90;94.90;;;;;;5006962;28;19929;-59
2021/09/24 02:56:31;;;;;;;;;;;14.90;94.70;;;;;;5004682;28;20028;-60
2021/09/24 02:58:58;;;;;;;;;;;14.90;94.60;;;;;;5007397;28;20319;-60
2021/09/24 03:01:25;;;;;;;;;;;14.90;94.60;;;;;;5007171;28;20397;-60
2021/09/24 03:03:52;;;;;;;;;;;14.90;94.60;;;;;;5006757;28;19925;-60
2021/09/24 03:06:19;;;;;;;;;;;14.80;94.50;;;;;;5007088;28;20403;-60
2021/09/24 03:08:45;;;;;;;;;;;14.80;94.40;;;;;;5006878;28;20475;-60
2021/09/24 03:11:12;;;;;;;;;;;14.80;94.50;;;;;;5007432;28;19968;-60
2021/09/24 03:13:39;;;;;;;;;;;14.80;94.30;;;;;;5005328;28;20296;-60
2021/09/24 03:16:05;;;;;;;;;;;14.80;94.30;;;;;;5007157;28;19976;-60
2021/09/24 03:18:32;;;;;;;;;;;14.70;94.40;;;;;;5006778;28;19932;-60
2021/09/24 03:20:59;;;;;;;;;;;14.70;94.50;;;;;;5007133;28;19929;-60
2021/09/24 03:23:26;;;;;;;;;;;14.60;94.50;;;;;;5006575;28;20000;-60
2021/09/24 03:25:52;;;;;;;;;;;14.60;94.50;;;;;;5005378;28;19965;-59
2021/09/24 03:28:19;;;;;;;;;;;14.60;94.50;;;;;;5005085;28;20340;-60
2021/09/24 03:30:46;;;;;;;;;;;14.50;94.60;;;;;;5006923;28;19921;-59
2021/09/24 03:33:12;;;;;;;;;;;14.50;94.60;;;;;;5005979;28;19921;-59
2021/09/24 03:35:39;;;;;;;;;;;14.50;94.70;;;;;;5007028;28;19921;-60
2021/09/24 03:38:06;;;;;;;;;;;14.40;94.70;;;;;;5007053;28;20006;-60
2021/09/24 03:40:32;;;;;;;;;;;14.40;94.80;;;;;;5006867;28;20016;-59
2021/09/24 03:42:59;;;;;;;;;;;14.40;94.80;;;;;;5005124;28;19972;-60
2021/09/24 03:45:27;;;;;;;;;;;14.40;94.70;;;;;;5006943;28;20020;-60
2021/09/24 03:47:55;;;;;;;;;;;14.50;94.70;;;;;;5005737;28;19921;-60
2021/09/24 03:50:23;;;;;;;;;;;14.50;94.70;;;;;;5010524;28;20415;-60
2021/09/24 03:52:51;;;;;;;;;;;14.50;94.50;;;;;;5010539;28;19991;-60
2021/09/24 03:55:18;;;;;;;;;;;14.60;94.60;;;;;;5010500;28;20062;-60
2021/09/24 03:57:45;;;;;;;;;;;14.60;94.50;;;;;;5008454;28;19921;-60
2021/09/24 04:00:12;;;;;;;;;;;14.70;94.40;;;;;;5010438;28;20328;-60
2021/09/24 04:02:38;;;;;;;;;;;14.60;94.30;;;;;;5009605;28;19975;-60
2021/09/24 04:05:06;;;;;;;;;;;14.70;94.30;;;;;;5010603;28;19921;-60
2021/09/24 04:07:32;;;;;;;;;;;14.70;94.30;;;;;;5009577;28;20632;-60
2021/09/24 04:09:59;;;;;;;;;;;14.70;94.20;;;;;;5010775;28;20445;-59
2021/09/24 04:12:26;;;;;;;;;;;14.80;94.10;;;;;;5009099;28;20078;-59
2021/09/24 04:14:53;;;;;;;;;;;14.80;94.10;;;;;;5009977;28;19931;-60
2021/09/24 04:17:19;;;;;;;;;;;14.70;94.10;;;;;;5010269;28;19928;-60
2021/09/24 04:19:46;;;;;;;;;;;14.70;94.10;;;;;;5007828;28;20484;-59
2021/09/24 04:22:13;;;;;;;;;;;14.70;94.20;;;;;;5009809;28;20056;-60
2021/09/24 04:24:39;;;;;;;;;;;14.70;94.30;;;;;;5009779;28;19969;-60
2021/09/24 04:27:06;;;;;;;;;;;14.60;94.40;;;;;;5008807;28;19967;-60
2021/09/24 04:29:33;;;;;;;;;;;14.60;94.50;;;;;;5009775;28;19928;-60
2021/09/24 04:31:59;;;;;;;;;;;14.60;94.40;;;;;;5009472;28;20020;-60
2021/09/24 04:34:26;;;;;;;;;;;14.70;94.60;;;;;;5009289;28;19921;-60
2021/09/24 04:36:53;;;;;;;;;;;14.60;94.30;;;;;;5009878;28;19968;-60
2021/09/24 04:39:19;;;;;;;;;;;14.60;94.40;;;;;;5009605;28;20004;-60
2021/09/24 04:41:46;;;;;;;;;;;14.60;94.40;;;;;;5008314;28;19972;-60
2021/09/24 04:44:12;;;;;;;;;;;14.60;94.40;;;;;;5009290;28;20013;-60
2021/09/24 04:46:39;;;;;;;;;;;14.60;94.40;;;;;;5009177;28;20566;-60
2021/09/24 04:49:06;;;;;;;;;;;14.60;94.50;;;;;;4994263;28;20016;-59
2021/09/24 04:51:33;;;;;;;;;;;14.60;94.50;;;;;;5004981;28;20007;-60
2021/09/24 04:54:00;;;;;;;;;;;14.60;94.50;;;;;;5005032;28;20012;-60
2021/09/24 04:56:27;;;;;;;;;;;14.50;94.50;;;;;;5004002;28;20253;-60
2021/09/24 04:58:53;;;;;;;;;;;14.40;94.50;;;;;;5002471;28;20008;-59
2021/09/24 05:01:20;;;;;;;;;;;14.40;94.70;;;;;;5003834;28;20153;-61
2021/09/24 05:03:47;;;;;;;;;;;14.40;94.80;;;;;;5004500;28;19922;-61
2021/09/24 05:06:13;;;;;;;;;;;14.30;94.80;;;;;;5003369;28;19976;-61
2021/09/24 05:08:40;;;;;;;;;;;14.30;94.80;;;;;;5004175;28;20466;-61
2021/09/24 05:11:07;;;;;;;;;;;14.30;94.70;;;;;;5004192;28;19976;-61
2021/09/24 05:13:33;;;;;;;;;;;14.20;94.60;;;;;;5002563;28;19976;-59
2021/09/24 05:16:00;;;;;;;;;;;14.00;94.90;;;;;;5004737;28;20511;-59
2021/09/24 05:18:27;;;;;;;;;;;14.00;95.00;;;;;;5002746;28;19979;-59
2021/09/24 05:20:53;;;;;;;;;;;14.00;95.20;;;;;;5004094;28;19976;-60
2021/09/24 05:23:20;;;;;;;;;;;14.00;95.10;;;;;;5001868;28;19964;-62
2021/09/24 05:25:47;;;;;;;;;;;14.10;95.00;;;;;;5011175;28;20431;-60
2021/09/24 05:28:13;;;;;;;;;;;14.10;95.00;;;;;;5010594;28;20049;-59
2021/09/24 05:30:40;;;;;;;;;;;14.10;95.10;;;;;;5013520;28;19956;-59
2021/09/24 05:33:07;;;;;;;;;;;14.10;95.00;;;;;;5010226;28;20012;-59
2021/09/24 05:35:33;;;;;;;;;;;14.20;95.00;;;;;;5013740;28;20378;-60
2021/09/24 05:38:00;;;;;;;;;;;14.20;94.90;;;;;;5011522;28;20028;-61
2021/09/24 05:40:27;;;;;;;;;;;14.20;95.00;;;;;;5012276;28;20012;-61
2021/09/24 05:42:53;;;;;;;;;;;14.20;94.90;;;;;;5010009;28;19964;-61
2021/09/24 05:45:20;;;;;;;;;;;14.20;94.80;;;;;;5012821;28;19964;-61
2021/09/24 05:47:47;;;;;;;;;;;14.20;94.70;;;;;;5011913;28;19951;-61
2021/09/24 05:50:14;;;;;;;;;;;14.30;94.70;;;;;;5011387;28;19971;-61
2021/09/24 05:52:42;;;;;;;;;;;14.30;94.80;;;;;;5008287;28;20019;-61
2021/09/24 05:55:09;;;;;;;;;;;14.30;94.50;;;;;;5007046;28;20529;-61
2021/09/24 05:57:35;;;;;;;;;;;14.30;94.20;;;;;;5008050;28;20064;-61
2021/09/24 06:00:03;;;;;;;;;;;14.30;94.20;;;;;;5012788;28;20119;-61
2021/09/24 06:02:30;;;;;;;;;;;14.30;94.30;;;;;;5006637;28;20059;-61
2021/09/24 06:04:58;;;;;;;;;;;14.30;94.30;;;;;;5002017;28;20035;-61
2021/09/24 06:07:25;;;;;;;;;;;14.30;94.30;;;;;;5002794;28;20020;-61
2021/09/24 06:09:52;;;;;;;;;;;14.30;94.10;;;;;;5002790;28;20349;-60
2021/09/24 06:12:18;;;;;;;;;;;14.40;94.00;;;;;;4999933;28;19960;-61
2021/09/24 06:14:45;;;;;;;;;;;14.40;93.90;;;;;;5003006;28;20024;-61
2021/09/24 06:17:12;;;;;;;;;;;14.40;93.90;;;;;;5002747;28;19929;-61
2021/09/24 06:19:38;;;;;;;;;;;14.50;93.90;;;;;;5002756;28;20020;-59
2021/09/24 06:22:06;;;;;;;;;;;14.50;93.70;;;;;;5001843;28;19972;-59
2021/09/24 06:24:32;;;;;;;;;;;14.50;93.50;;;;;;5002616;28;19925;-60
2021/09/24 06:26:59;;;;;;;;;;;14.50;93.60;;;;;;5001709;28;19984;-59
2021/09/24 06:29:26;;;;;;;;;;;14.50;93.50;;;;;;5000056;28;20016;-60
2021/09/24 06:31:52;;;;;;;;;;;14.50;93.40;;;;;;4996539;28;20000;-59
2021/09/24 06:34:19;;;;;;;;;;;14.50;93.40;;;;;;5029501;28;20011;-60
2021/09/24 06:36:46;;;;;;;;;;;14.40;93.30;;;;;;5042138;28;20011;-59
2021/09/24 06:39:12;;;;;;;;;;;14.50;93.40;;;;;;5009865;28;19921;-59
2021/09/24 06:41:39;;;;;;;;;;;14.50;93.40;;;;;;5019667;28;19978;-59
2021/09/24 06:44:07;;;;;;;;;;;14.60;93.30;;;;;;5020480;28;19975;-59
2021/09/24 06:46:38;;;;;;;;;;;14.60;93.30;;;;;;5005287;28;20001;-59
2021/09/24 06:49:04;;;;;;;;;;;14.70;93.00;;;;;;5022291;28;20467;-60
2021/09/24 06:51:31;;;;;;;;;;;14.70;93.10;;;;;;5007972;28;20076;-59
2021/09/24 06:53:58;;;;;;;;;;;14.70;92.70;;;;;;5015242;28;19964;-60
2021/09/24 06:56:24;;;;;;;;;;;14.70;92.70;;;;;;5041781;28;20019;-59
2021/09/24 06:58:51;;;;;;;;;;;14.60;92.70;;;;;;5033069;28;20369;-59
2021/09/24 07:01:18;;;;;;;;;;;14.60;92.80;;;;;;5021948;28;19964;-60
2021/09/24 07:03:45;;;;;;;;;;;14.60;92.90;;;;;;5021164;28;20007;-59
2021/09/24 07:06:13;;;;;;;;;;;14.70;92.80;;;;;;5015188;28;20011;-60
2021/09/24 07:08:40;;;;;;;;;;;14.70;92.70;;;;;;5011723;28;19940;-60
2021/09/24 07:11:07;;;;;;;;;;;14.70;92.80;;;;;;5013166;28;19968;-59
2021/09/24 07:13:34;;;;;;;;;;;14.80;92.50;;;;;;5008161;28;20039;-60
2021/09/24 07:16:02;;;;;;;;;;;14.80;92.50;;;;;;5029159;28;20067;-60
2021/09/24 07:18:29;;;;;;;;;;;14.80;92.50;;;;;;5010956;28;20011;-59
2021/09/24 07:20:55;;;;;;;;;;;14.90;92.20;;;;;;5013875;28;20019;-60
2021/09/24 07:23:22;;;;;;;;;;;14.90;92.30;;;;;;5011185;28;20016;-60
2021/09/24 07:25:49;;;;;;;;;;;15.00;92.10;;;;;;5019992;28;20769;-59
2021/09/24 07:28:16;;;;;;;;;;;15.10;92.00;;;;;;5039278;28;19921;-60
2021/09/24 07:30:42;;;;;;;;;;;15.20;91.80;;;;;;5009502;28;20388;-60
2021/09/24 07:33:09;;;;;;;;;;;15.20;91.50;;;;;;5025693;28;20645;-59
2021/09/24 07:35:36;;;;;;;;;;;15.20;91.60;;;;;;5024682;28;19932;-60
2021/09/24 07:38:02;;;;;;;;;;;15.30;91.40;;;;;;5025447;28;19999;-59
2021/09/24 07:40:29;;;;;;;;;;;15.40;91.30;;;;;;5033074;28;19951;-60
2021/09/24 07:42:56;;;;;;;;;;;15.40;91.10;;;;;;5026816;28;20016;-59
2021/09/24 07:45:23;;;;;;;;;;;15.40;91.20;;;;;;5023020;28;20360;-59
2021/09/24 07:47:49;;;;;;;;;;;15.50;91.20;;;;;;5027469;28;20027;-59
2021/09/24 07:50:16;;;;;;;;;;;15.50;90.80;;;;;;5019187;28;20020;-59
2021/09/24 07:52:43;;;;;;;;;;;15.50;90.60;;;;;;5024625;28;20067;-59
2021/09/24 07:55:09;;;;;;;;;;;15.50;90.70;;;;;;5023458;28;20075;-59
2021/09/24 07:57:36;;;;;;;;;;;15.50;90.80;;;;;;5023870;28;20028;-59
2021/09/24 08:00:03;;;;;;;;;;;15.50;90.80;;;;;;5022352;28;20015;-60
2021/09/24 08:02:30;;;;;;;;;;;15.60;90.80;;;;;;5024193;28;19972;-59
2021/09/24 08:04:57;;;;;;;;;;;15.60;90.60;;;;;;5023250;28;19991;-59
2021/09/24 08:07:24;;;;;;;;;;;15.60;90.60;;;;;;5017905;28;20051;-59
2021/09/24 08:09:51;;;;;;;;;;;15.50;90.30;;;;;;5020190;28;20008;-60
2021/09/24 08:12:17;;;;;;;;;;;15.50;90.30;;;;;;5019594;28;20007;-59
2021/09/24 08:14:44;;;;;;;;;;;15.50;90.50;;;;;;5021870;28;19925;-59
2021/09/24 08:17:11;;;;;;;;;;;15.50;90.40;;;;;;5020227;28;20011;-59
2021/09/24 08:19:38;;;;;;;;;;;15.60;90.40;;;;;;5019019;28;20027;-59
2021/09/24 08:22:04;;;;;;;;;;;15.60;90.30;;;;;;5020821;28;19975;-59
2021/09/24 08:24:31;;;;;;;;;;;15.60;90.20;;;;;;5030224;28;20008;-59
2021/09/24 08:26:58;;;;;;;;;;;15.80;90.30;;;;;;5027025;28;20168;-59
2021/09/24 08:29:25;;;;;;;;;;;15.90;90.20;;;;;;5021119;28;20314;-59
2021/09/24 08:31:51;;;;;;;;;;;16.00;90.00;;;;;;4989074;28;19968;-58
2021/09/24 08:34:18;;;;;;;;;;;16.20;89.60;;;;;;5032403;28;19960;-59
2021/09/24 08:36:45;;;;;;;;;;;16.50;91.60;;;;;;5009625;28;20403;-59
2021/09/24 08:39:11;;;;;;;;;;;16.50;87.60;;;;;;5020502;28;19932;-59
2021/09/24 08:41:38;;;;;;;;;;;16.40;87.40;;;;;;5017019;28;20015;-59
2021/09/24 08:44:05;;;;;;;;;;;16.40;87.80;;;;;;5021780;28;19936;-59
2021/09/24 08:46:34;;;;;;;;;;;16.40;87.50;;;;;;5036995;28;19998;-59
2021/09/24 08:49:04;;;;;;;;;;;16.40;87.00;;;;;;5020508;28;19921;-59
2021/09/24 08:51:30;;;;;;;;;;;16.30;86.60;;;;;;5018860;28;19968;-59
2021/09/24 08:53:57;;;;;;;;;;;16.20;86.60;;;;;;5021971;28;20000;-59
2021/09/24 08:56:24;;;;;;;;;;;16.10;86.90;;;;;;5022542;28;20352;-59
2021/09/24 08:58:51;;;;;;;;;;;16.10;87.20;;;;;;5020940;28;19925;-59
2021/09/24 09:01:17;;;;;;;;;;;16.00;87.40;;;;;;5022057;28;20019;-59
2021/09/24 09:03:45;;;;;;;;;;;16.00;86.90;;;;;;5019720;28;19929;-58
2021/09/24 09:06:15;;;;;;;;;;;15.90;86.50;;;;;;5022208;28;20050;-59
2021/09/24 09:08:43;;;;;;;;;;;16.00;85.90;;;;;;5032060;28;19990;-58
2021/09/24 09:11:14;;;;;;;;;;;16.00;84.70;;;;;;5025134;28;20257;-59
2021/09/24 09:13:41;;;;;;;;;;;16.10;84.00;;;;;;5021804;28;19983;-59
2021/09/24 09:16:09;;;;;;;;;;;16.10;83.70;;;;;;5031738;28;20010;-58
2021/09/24 09:18:37;;;;;;;;;;;16.20;83.80;;;;;;5025834;28;20343;-58
2021/09/24 09:21:04;;;;;;;;;;;16.20;83.50;;;;;;5022032;28;19952;-58
2021/09/24 09:23:31;;;;;;;;;;;16.30;83.80;;;;;;5019626;28;19982;-59
2021/09/24 09:25:59;;;;;;;;;;;16.40;83.50;;;;;;5021589;28;19952;-59
2021/09/24 09:28:30;;;;;;;;;;;16.40;82.50;;;;;;5020929;28;20332;-59
2021/09/24 09:30:57;;;;;;;;;;;16.50;81.10;;;;;;5021848;28;20007;-59
2021/09/24 09:33:25;;;;;;;;;;;16.50;79.80;;;;;;5016890;28;19968;-59
2021/09/24 09:35:53;;;;;;;;;;;16.50;79.20;;;;;;5018266;28;20011;-59
2021/09/24 09:38:30;;;;;;;;;;;16.40;79.70;;;;;;5021920;28;19987;-59
2021/09/24 09:41:02;;;;;;;;;;;16.50;80.10;;;;;;5022206;28;20011;-59
2021/09/24 09:43:34;;;;;;;;;;;16.50;80.10;;;;;;5020446;28;19975;-59
2021/09/24 09:46:02;;;;;;;;;;;16.60;79.60;;;;;;5022758;28;20370;-59
2021/09/24 09:48:28;;;;;;;;;;;16.60;80.30;;;;;;5022222;28;20019;-59
2021/09/24 09:50:55;;;;;;;;;;;16.70;80.10;;;;;;5020002;28;19972;-59
2021/09/24 09:53:22;;;;;;;;;;;16.70;79.00;;;;;;5024632;28;19929;-59
2021/09/24 09:55:50;;;;;;;;;;;16.70;78.10;;;;;;5025015;28;19963;-59
2021/09/24 09:58:17;;;;;;;;;;;16.70;79.40;;;;;;5020516;28;20027;-59
2021/09/24 10:00:58;;;;;;;;;;;16.70;79.80;;;;;;5023209;28;19924;-59
2021/09/24 10:03:26;;;;;;;;;;;16.80;79.60;;;;;;5019985;28;20002;-59
2021/09/24 10:05:53;;;;;;;;;;;17.00;79.60;;;;;;5019709;28;19921;-59
2021/09/24 10:08:21;;;;;;;;;;;17.10;79.30;;;;;;5028818;28;20015;-59
2021/09/24 10:11:07;;;;;;;;;;;17.30;79.10;;;;;;5022647;28;20008;-59
2021/09/24 10:13:53;;;;;;;;;;;17.30;76.30;;;;;;5018492;28;19968;-59
2021/09/24 10:16:24;;;;;;;;;;;17.40;76.70;;;;;;5024557;28;19983;-59
2021/09/24 10:18:51;;;;;;;;;;;17.40;74.60;;;;;;5026317;28;20004;-60
2021/09/24 10:21:18;;;;;;;;;;;17.50;75.60;;;;;;5030054;28;20019;-59
2021/09/24 10:23:44;;;;;;;;;;;17.50;76.60;;;;;;5036076;28;19928;-61
2021/09/24 10:26:19;;;;;;;;;;;17.60;75.80;;;;;;5021203;28;20008;-59
2021/09/24 10:28:46;;;;;;;;;;;17.60;76.70;;;;;;4990950;28;19969;-58
2021/09/24 10:31:13;;;;;;;;;;;17.80;75.50;;;;;;5027438;28;19928;-59
2021/09/24 10:33:50;;;;;;;;;;;17.80;75.90;;;;;;5019608;28;19925;-59
2021/09/24 10:36:32;;;;;;;;;;;17.90;73.90;;;;;;5025379;28;20024;-59
2021/09/24 10:38:59;;;;;;;;;;;17.90;75.20;;;;;;5025063;28;20339;-59
2021/09/24 10:41:26;;;;;;;;;;;17.80;74.90;;;;;;5012558;28;19975;-59
2021/09/24 10:43:54;;;;;;;;;;;17.80;74.80;;;;;;5035604;28;20032;-59
2021/09/24 10:46:24;;;;;;;;;;;17.90;74.90;;;;;;5027703;28;20023;-59
2021/09/24 10:49:09;;;;;;;;;;;17.90;73.00;;;;;;5015658;28;20390;-59
2021/09/24 10:51:36;;;;;;;;;;;17.90;73.70;;;;;;5005817;28;20028;-59
2021/09/24 10:54:13;;;;;;;;;;;17.90;73.10;;;;;;5013533;28;19927;-59
2021/09/24 10:56:40;;;;;;;;;;;18.00;72.60;;;;;;5015561;28;20003;-60
2021/09/24 10:59:20;;;;;;;;;;;18.00;73.10;;;;;;5014129;28;19924;-59
2021/09/24 11:01:47;;;;;;;;;;;18.10;74.10;;;;;;5021196;28;19972;-60
2021/09/24 11:04:14;;;;;;;;;;;18.30;73.10;;;;;;5019680;28;20565;-58
2021/09/24 11:06:46;;;;;;;;;;;18.50;72.30;;;;;;5010344;28;19921;-59
2021/09/24 11:09:14;;;;;;;;;;;18.60;70.70;;;;;;5014574;28;19937;-59
2021/09/24 11:11:45;;;;;;;;;;;18.60;71.70;;;;;;5012561;28;19979;-59
2021/09/24 11:14:23;;;;;;;;;;;18.70;69.80;;;;;;5006678;28;19987;-59
2021/09/24 11:16:50;;;;;;;;;;;18.90;69.90;;;;;;5007473;28;20004;-59
2021/09/24 11:19:27;;;;;;;;;;;19.10;68.90;;;;;;5011423;28;19924;-58
2021/09/24 11:22:08;;;;;;;;;;;19.20;67.70;;;;;;5013287;28;19967;-59
2021/09/24 11:24:35;;;;;;;;;;;19.40;66.80;;;;;;5020563;28;20027;-59
2021/09/24 11:27:03;;;;;;;;;;;19.50;66.60;;;;;;5038134;28;20354;-59
2021/09/24 11:29:30;;;;;;;;;;;19.70;66.00;;;;;;5027463;28;19962;-60
2021/09/24 11:32:00;;;;;;;;;;;19.90;65.00;;;;;;5014043;28;20469;-60
2021/09/24 11:34:32;;;;;;;;;;;20.00;64.10;;;;;;5014704;28;20015;-59
2021/09/24 11:37:00;;;;;;;;;;;20.10;63.60;;;;;;5010493;28;19987;-60
2021/09/24 11:39:27;;;;;;;;;;;20.10;62.80;;;;;;5013068;28;20010;-59
2021/09/24 11:42:06;;;;;;;;;;;20.30;62.70;;;;;;5015419;28;20020;-59
2021/09/24 11:44:33;;;;;;;;;;;20.40;62.10;;;;;;5008597;28;20023;-59
2021/09/24 11:47:00;;;;;;;;;;;20.70;61.50;;;;;;5000960;28;19925;-60
2021/09/24 11:49:40;;;;;;;;;;;20.90;61.60;;;;;;5007039;28;19925;-59
2021/09/24 11:52:07;;;;;;;;;;;21.20;62.60;;;;;;5006747;28;20384;-60
2021/09/24 11:54:34;;;;;;;;;;;21.60;59.60;;;;;;5011558;28;20424;-61
2021/09/24 11:57:00;;;;;;;;;;;21.80;58.50;;;;;;5014022;28;20314;-60
2021/09/24 11:59:27;;;;;;;;;;;21.90;58.50;;;;;;5017442;28;20337;-60
2021/09/24 12:01:54;;;;;;;;;;;22.00;57.00;;;;;;5017396;28;19964;-60
2021/09/24 12:04:20;;;;;;;;;;;22.20;57.30;;;;;;5016991;28;19933;-60
2021/09/24 12:06:50;;;;;;;;;;;22.50;56.80;;;;;;5010494;28;19925;-60
2021/09/24 12:09:22;;;;;;;;;;;22.80;55.40;;;;;;5009678;28;19929;-60
2021/09/24 12:11:51;;;;;;;;;;;22.90;55.40;;;;;;5019207;28;19921;-60
2021/09/24 12:14:18;;;;;;;;;;;23.00;54.50;;;;;;5021503;28;19924;-59
2021/09/24 12:16:45;;;;;;;;;;;23.10;54.50;;;;;;5011379;28;20011;-60
2021/09/24 12:19:25;;;;;;;;;;;23.10;54.60;;;;;;5014983;28;19928;-60
2021/09/24 12:21:56;;;;;;;;;;;23.60;54.30;;;;;;5016572;28;19979;-60
2021/09/24 12:24:28;;;;;;;;;;;24.00;53.80;;;;;;5023023;28;19925;-60
2021/09/24 12:27:21;;;;;;;;;;;24.20;52.50;;;;;;5028205;28;19958;-60
2021/09/24 12:29:51;;;;;;;;;;;24.30;52.00;;;;;;5020285;28;19948;-60
2021/09/24 12:32:21;;;;;;;;;;;24.70;49.60;;;;;;5012520;28;19952;-60
2021/09/24 12:34:48;;;;;;;;;;;24.60;49.70;;;;;;5022788;28;20374;-60
2021/09/24 12:37:16;;;;;;;;;;;24.60;50.10;;;;;;5023037;28;19983;-60
2021/09/24 12:39:43;;;;;;;;;;;24.60;51.50;;;;;;5019860;28;20444;-60
2021/09/24 12:42:11;;;;;;;;;;;24.70;51.30;;;;;;5010724;28;20012;-60
2021/09/24 12:44:47;;;;;;;;;;;25.00;49.40;;;;;;5014927;28;19983;-60
2021/09/24 12:47:18;;;;;;;;;;;25.00;50.00;;;;;;5037727;28;20011;-60
2021/09/24 12:49:45;;;;;;;;;;;25.20;50.70;;;;;;5025062;28;20259;-60
2021/09/24 12:52:11;;;;;;;;;;;25.30;50.10;;;;;;5022136;28;20338;-60
2021/09/24 12:54:38;;;;;;;;;;;25.50;48.20;;;;;;5012984;28;19929;-60
2021/09/24 12:57:05;;;;;;;;;;;25.50;49.30;;;;;;5011707;28;19963;-60
2021/09/24 12:59:33;;;;;;;;;;;25.70;50.10;;;;;;5014842;28;20280;-60
2021/09/24 13:02:01;;;;;;;;;;;26.00;49.10;;;;;;5015344;28;20096;-61
2021/09/24 13:04:29;;;;;;;;;;;26.20;48.60;;;;;;5018547;28;19925;-60
2021/09/24 13:06:56;;;;;;;;;;;26.10;48.70;;;;;;5018712;28;20020;-59
2021/09/24 13:09:23;;;;;;;;;;;26.10;48.60;;;;;;5021254;28;20024;-59
2021/09/24 13:11:50;;;;;;;;;;;26.20;48.70;;;;;;5017441;28;19979;-60
2021/09/24 13:14:17;;;;;;;;;;;26.40;48.40;;;;;;5017724;28;20727;-59
2021/09/24 13:16:44;;;;;;;;;;;26.60;48.40;;;;;;5019003;28;20729;-59
2021/09/24 13:19:10;;;;;;;;;;;26.70;47.70;;;;;;5021227;28;20414;-60
2021/09/24 13:21:37;;;;;;;;;;;27.00;47.40;;;;;;5003272;28;20444;-59
2021/09/24 13:24:04;;;;;;;;;;;26.90;46.90;;;;;;5020898;28;19960;-60
2021/09/24 13:26:31;;;;;;;;;;;27.10;46.60;;;;;;5024766;28;20637;-59
2021/09/24 13:28:59;;;;;;;;;;;27.10;46.00;;;;;;5027536;28;20414;-59
2021/09/24 13:31:25;;;;;;;;;;;27.30;46.90;;;;;;5015879;28;19935;-59
2021/09/24 13:33:53;;;;;;;;;;;27.60;45.80;;;;;;5026759;28;20055;-60
2021/09/24 13:36:20;;;;;;;;;;;27.40;46.00;;;;;;5018338;28;19972;-59
2021/09/24 13:38:46;;;;;;;;;;;27.30;45.80;;;;;;5022856;28;20011;-59
2021/09/24 13:41:13;;;;;;;;;;;27.30;46.90;;;;;;5020495;28;20318;-59
2021/09/24 13:43:40;;;;;;;;;;;27.20;46.70;;;;;;5020325;28;19929;-59
2021/09/24 13:46:06;;;;;;;;;;;27.40;46.50;;;;;;5021169;28;19960;-59
2021/09/24 13:48:35;;;;;;;;;;;27.50;46.30;;;;;;5021388;28;19925;-59
2021/09/24 13:51:02;;;;;;;;;;;27.60;46.70;;;;;;5019359;28;20028;-59
2021/09/24 13:53:28;;;;;;;;;;;27.60;46.10;;;;;;5018949;28;20048;-60
2021/09/24 13:55:55;;;;;;;;;;;27.70;46.30;;;;;;5016652;28;19925;-59
2021/09/24 13:58:22;;;;;;;;;;;27.80;46.30;;;;;;5018289;28;19968;-60
2021/09/24 14:00:48;;;;;;;;;;;27.90;46.10;;;;;;5015582;28;20024;-60
2021/09/24 14:03:15;;;;;;;;;;;28.00;46.30;;;;;;5018516;28;19929;-60
2021/09/24 14:05:42;;;;;;;;;;;28.00;46.50;;;;;;5018744;28;19948;-59
2021/09/24 14:08:09;;;;;;;;;;;28.00;47.10;;;;;;5017618;28;20018;-58
2021/09/24 14:10:36;;;;;;;;;;;28.10;47.40;;;;;;5015763;28;20032;-59
2021/09/24 14:13:02;;;;;;;;;;;28.00;47.30;;;;;;5010821;28;20028;-59
2021/09/24 14:15:29;;;;;;;;;;;27.70;47.20;;;;;;5021419;28;20410;-59
2021/09/24 14:17:56;;;;;;;;;;;27.70;48.10;;;;;;5019863;28;20020;-59